Terminal Aerodrome Forecast
Issued by NWS Shreveport, LA

Home | Current Version | Previous Version | Text Only | Print | Product List | Glossary On
Versions: 1 2 3 4 5 6 7 8 9 10 11 12 13 14 15 16
417
FTUS44 KSHV 172320
TAFMLU
TAF
KMLU 172320Z 1800/1824 00000KT P6SM SKC
     FM181600 12003KT P6SM SKC
     FM182000 17004KT P6SM SCT300=

USA.gov is the U.S. government's official web portal to all federal, state and local government web resources and services.